createdAt,value
2022-11-17T00:00:42.227Z,8.30
2022-11-17T00:03:14.837Z,8.47
2022-11-17T00:05:41.722Z,8.48
2022-11-17T00:08:08.601Z,8.37
2022-11-17T00:10:35.567Z,8.25
2022-11-17T00:13:20.894Z,8.11
2022-11-17T00:15:47.960Z,8.00
2022-11-17T00:18:33.044Z,8.18
2022-11-17T00:21:23.931Z,8.14
2022-11-17T00:23:51.112Z,8.11
2022-11-17T00:26:20.711Z,8.22
2022-11-17T00:28:51.682Z,8.16
2022-11-17T00:31:36.884Z,8.00
2022-11-17T00:34:06.870Z,8.01
2022-11-17T00:36:48.439Z,8.00
2022-11-17T00:39:16.716Z,8.16
2022-11-17T00:41:44.202Z,8.16
2022-11-17T00:44:11.428Z,8.18
2022-11-17T00:46:39.614Z,8.17
2022-11-17T00:49:07.719Z,8.28
2022-11-17T00:51:35.137Z,8.26
2022-11-17T00:54:02.827Z,8.39
2022-11-17T00:56:29.673Z,8.25
2022-11-17T00:58:56.985Z,8.20
2022-11-17T01:01:24.676Z,8.27
2022-11-17T01:03:51.959Z,8.28
2022-11-17T01:06:20.687Z,8.31
2022-11-17T01:08:47.735Z,8.34
2022-11-17T01:11:17.639Z,8.34
2022-11-17T01:13:47.284Z,8.39
2022-11-17T01:16:19.553Z,8.46
2022-11-17T01:18:48.288Z,8.43
2022-11-17T01:21:18.861Z,8.44
2022-11-17T01:23:46.622Z,8.55
2022-11-17T01:26:16.882Z,8.57
2022-11-17T01:28:44.618Z,8.56
2022-11-17T01:31:16.935Z,8.34
2022-11-17T01:33:44.449Z,8.29
2022-11-17T01:36:20.689Z,8.33
2022-11-17T01:38:47.624Z,8.46
2022-11-17T01:41:17.498Z,8.36
2022-11-17T01:44:40.213Z,8.28
2022-11-17T01:47:16.684Z,8.34
2022-11-17T01:49:45.241Z,8.30
2022-11-17T01:52:13.212Z,8.31
2022-11-17T01:54:42.418Z,8.28
2022-11-17T01:57:18.120Z,8.21
2022-11-17T01:59:54.000Z,8.20
2022-11-17T02:02:21.420Z,8.10
2022-11-17T02:05:02.134Z,8.09
2022-11-17T02:07:34.413Z,8.11
2022-11-17T02:10:02.793Z,7.97
2022-11-17T02:12:32.259Z,7.84
2022-11-17T02:15:06.980Z,7.73
2022-11-17T02:17:41.670Z,7.62
2022-11-17T02:20:15.357Z,7.70
2022-11-17T02:23:23.677Z,7.63
2022-11-17T02:26:09.332Z,7.51
2022-11-17T02:28:42.528Z,7.42
2022-11-17T02:31:30.856Z,7.32
2022-11-17T02:34:12.127Z,7.30
2022-11-17T02:37:02.080Z,7.32
2022-11-17T02:39:44.125Z,7.35
2022-11-17T02:42:18.564Z,7.34
2022-11-17T02:44:57.643Z,7.22
2022-11-17T02:47:29.446Z,7.09
2022-11-17T02:50:04.009Z,7.07
2022-11-17T02:52:31.685Z,7.06
2022-11-17T02:55:06.375Z,7.04
2022-11-17T02:57:41.296Z,7.00
2022-11-17T03:00:15.257Z,6.97
2022-11-17T03:03:23.477Z,6.90
2022-11-17T03:06:04.011Z,6.85
2022-11-17T03:09:10.474Z,6.79
2022-11-17T03:11:48.587Z,6.82
2022-11-17T03:14:27.738Z,6.77
2022-11-17T03:17:06.867Z,6.76
2022-11-17T03:19:41.501Z,6.79
2022-11-17T03:22:16.201Z,6.80
2022-11-17T03:24:52.535Z,6.81
2022-11-17T03:27:27.114Z,6.74
2022-11-17T03:30:06.969Z,6.65
2022-11-17T03:32:38.799Z,6.71
2022-11-17T03:35:10.427Z,6.73
2022-11-17T03:37:42.819Z,6.78
2022-11-17T03:40:12.995Z,6.63
2022-11-17T03:42:42.105Z,6.63
2022-11-17T03:45:20.897Z,6.81
2022-11-17T03:47:50.426Z,6.70
2022-11-17T03:50:24.209Z,6.54
2022-11-17T03:52:52.367Z,6.58
2022-11-17T03:55:19.594Z,6.61
2022-11-17T03:57:50.994Z,6.65
2022-11-17T04:00:19.560Z,6.58
2022-11-17T04:02:53.630Z,6.51
2022-11-17T04:05:20.597Z,6.53
2022-11-17T04:07:48.426Z,6.57
2022-11-17T04:10:17.859Z,6.60
2022-11-17T04:13:03.618Z,6.41
2022-11-17T04:15:49.266Z,6.19
2022-11-17T04:18:16.440Z,6.13
2022-11-17T04:20:43.510Z,6.14
2022-11-17T04:23:15.873Z,6.14
2022-11-17T04:26:06.591Z,6.22
2022-11-17T04:28:38.353Z,6.11
2022-11-17T04:31:23.202Z,6.13
2022-11-17T04:34:01.981Z,6.11
2022-11-17T04:36:43.705Z,6.15
2022-11-17T04:39:11.943Z,6.11
2022-11-17T04:41:54.537Z,6.13
2022-11-17T04:44:26.395Z,6.23
2022-11-17T04:46:54.715Z,6.17
2022-11-17T04:49:23.278Z,6.51
2022-11-17T04:51:52.295Z,6.21
2022-11-17T04:54:22.282Z,6.17
2022-11-17T04:56:49.224Z,6.21
2022-11-17T04:59:16.077Z,6.47
2022-11-17T05:01:43.793Z,6.52
2022-11-17T05:04:35.725Z,6.40
2022-11-17T05:07:03.038Z,6.41
2022-11-17T05:09:31.138Z,6.35
2022-11-17T05:12:23.307Z,6.21
2022-11-17T05:14:50.666Z,6.41
2022-11-17T05:17:17.836Z,6.21
2022-11-17T05:19:46.974Z,6.22
2022-11-17T05:22:40.417Z,6.28
2022-11-17T05:25:08.044Z,6.37
2022-11-17T05:27:35.616Z,6.44
2022-11-17T05:30:05.198Z,6.47
2022-11-17T05:32:32.184Z,6.42
2022-11-17T05:34:59.133Z,6.37
2022-11-17T05:37:26.024Z,6.24
2022-11-17T05:39:52.956Z,6.20
2022-11-17T05:42:19.862Z,6.22
2022-11-17T05:44:48.658Z,6.31
2022-11-17T05:47:16.295Z,6.20
2022-11-17T05:49:43.133Z,6.30
2022-11-17T05:52:09.970Z,6.31
2022-11-17T05:54:36.825Z,6.21
2022-11-17T05:57:12.197Z,6.15
2022-11-17T05:59:53.136Z,6.10
2022-11-17T06:02:26.906Z,5.93
2022-11-17T06:04:53.832Z,5.97
2022-11-17T06:07:20.957Z,5.92
2022-11-17T06:09:48.040Z,5.97
2022-11-17T06:12:15.674Z,6.02
2022-11-17T06:14:42.907Z,5.98
2022-11-17T06:17:21.813Z,6.00
2022-11-17T06:19:58.381Z,6.05
2022-11-17T06:22:27.193Z,6.14
2022-11-17T06:24:55.223Z,6.20
2022-11-17T06:27:22.923Z,6.15
2022-11-17T06:29:50.282Z,6.01
2022-11-17T06:32:19.225Z,6.15
2022-11-17T06:34:53.855Z,6.26
2022-11-17T06:37:23.080Z,6.32
2022-11-17T06:39:50.741Z,6.33
2022-11-17T06:42:17.578Z,6.22
2022-11-17T06:44:44.469Z,6.32
2022-11-17T06:47:11.356Z,6.31
2022-11-17T06:49:38.260Z,6.42
2022-11-17T06:52:05.272Z,6.37
2022-11-17T06:54:32.228Z,6.39
2022-11-17T06:56:59.147Z,6.48
2022-11-17T06:59:26.060Z,6.41
2022-11-17T07:01:53.191Z,6.42
2022-11-17T07:04:20.104Z,6.28
2022-11-17T07:06:47.116Z,6.32
2022-11-17T07:09:13.940Z,6.24
2022-11-17T07:11:40.837Z,6.40
2022-11-17T07:14:07.855Z,6.39
2022-11-17T07:16:34.939Z,6.75
2022-11-17T07:19:03.942Z,6.71
2022-11-17T07:21:31.609Z,6.76
2022-11-17T07:23:58.612Z,6.81
2022-11-17T07:26:25.559Z,7.02
2022-11-17T07:28:52.616Z,6.91
2022-11-17T07:31:20.826Z,6.73
2022-11-17T07:33:47.998Z,6.74
2022-11-17T07:36:15.460Z,6.74
2022-11-17T07:38:42.776Z,6.80
2022-11-17T07:41:12.501Z,6.84
2022-11-17T07:43:39.685Z,6.76
2022-11-17T07:46:08.708Z,6.73
2022-11-17T07:48:35.989Z,6.80
2022-11-17T07:51:04.702Z,6.62
2022-11-17T07:53:33.561Z,6.70
2022-11-17T07:56:18.398Z,6.91
2022-11-17T07:58:45.279Z,7.03
2022-11-17T08:01:17.409Z,7.32
2022-11-17T08:03:44.868Z,7.60
2022-11-17T08:06:12.068Z,7.45
2022-11-17T08:08:39.964Z,7.49
2022-11-17T08:11:12.625Z,7.33
2022-11-17T08:13:40.911Z,7.58
2022-11-17T08:16:09.849Z,7.26
2022-11-17T08:18:37.902Z,7.17
2022-11-17T08:21:07.171Z,7.39
2022-11-17T08:23:34.673Z,7.48
2022-11-17T08:26:05.607Z,7.72
2022-11-17T08:28:34.232Z,8.12
2022-11-17T08:31:02.886Z,7.78
2022-11-17T08:33:30.128Z,7.88
2022-11-17T08:36:01.561Z,8.13
2022-11-17T08:38:31.855Z,8.01
2022-11-17T08:41:02.246Z,7.87
2022-11-17T08:43:29.416Z,7.55
2022-11-17T08:45:56.875Z,7.54
2022-11-17T08:48:24.392Z,7.50
2022-11-17T08:50:52.002Z,7.34
2022-11-17T08:53:20.473Z,7.17
2022-11-17T08:55:47.595Z,7.19
2022-11-17T08:58:14.572Z,7.17
2022-11-17T09:00:42.489Z,7.24
2022-11-17T09:03:11.264Z,7.42
2022-11-17T09:05:44.250Z,7.27
2022-11-17T09:08:43.519Z,7.46
2022-11-17T09:10:59.378Z,7.56
2022-11-17T09:13:26.166Z,7.91
2022-11-17T09:15:53.230Z,8.23
2022-11-17T09:18:20.176Z,8.42
2022-11-17T09:20:47.355Z,9.05
2022-11-17T09:23:14.186Z,9.11
2022-11-17T09:25:41.090Z,9.11
2022-11-17T09:28:07.996Z,8.71
2022-11-17T09:30:34.795Z,8.68
2022-11-17T09:33:02.720Z,8.76
2022-11-17T09:35:29.540Z,8.72
2022-11-17T09:38:01.335Z,8.90
2022-11-17T09:40:34.640Z,8.69
2022-11-17T09:43:09.108Z,8.60
2022-11-17T09:45:39.020Z,8.27
2022-11-17T09:48:43.567Z,8.45
2022-11-17T09:51:15.022Z,8.15
2022-11-17T09:54:08.136Z,7.96
2022-11-17T09:56:35.392Z,8.26
2022-11-17T09:59:04.854Z,8.27
2022-11-17T10:01:31.810Z,8.31
2022-11-17T10:04:00.326Z,8.41
2022-11-17T10:06:30.044Z,8.54
2022-11-17T10:09:07.156Z,8.55
2022-11-17T10:11:38.183Z,8.71
2022-11-17T10:14:22.361Z,8.81
2022-11-17T10:16:54.727Z,9.11
2022-11-17T10:19:26.808Z,9.22
2022-11-17T10:22:16.744Z,9.50
2022-11-17T10:24:43.690Z,9.20
2022-11-17T10:27:29.055Z,9.39
2022-11-17T10:29:58.956Z,9.52
2022-11-17T10:32:27.954Z,9.33
2022-11-17T10:34:55.331Z,8.79
2022-11-17T10:37:30.434Z,8.64
2022-11-17T10:40:23.680Z,9.04
2022-11-17T10:43:05.505Z,9.23
2022-11-17T10:45:32.996Z,9.14
2022-11-17T10:48:17.018Z,9.12
2022-11-17T10:50:57.538Z,8.97
2022-11-17T10:53:30.888Z,8.92
2022-11-17T10:56:05.147Z,8.81
2022-11-17T10:58:33.842Z,9.01
2022-11-17T11:01:03.427Z,9.39
2022-11-17T11:03:35.463Z,9.15
2022-11-17T11:06:06.785Z,8.68
2022-11-17T11:08:42.242Z,8.94
2022-11-17T11:11:36.385Z,9.09
2022-11-17T11:14:18.403Z,9.17
2022-11-17T11:16:48.611Z,9.30
2022-11-17T11:19:18.124Z,9.30
2022-11-17T11:22:14.693Z,9.27
2022-11-17T11:25:03.738Z,9.41
2022-11-17T11:27:30.545Z,9.15
2022-11-17T11:30:05.379Z,9.07
2022-11-17T11:32:37.044Z,9.28
2022-11-17T11:35:27.896Z,9.23
2022-11-17T11:38:21.872Z,9.13
2022-11-17T11:41:13.623Z,9.08
2022-11-17T11:44:31.057Z,9.24
2022-11-17T11:47:22.001Z,8.90
2022-11-17T11:49:59.943Z,9.00
2022-11-17T11:52:38.332Z,8.96
2022-11-17T11:55:28.131Z,8.56
2022-11-17T11:58:02.073Z,8.80
2022-11-17T12:00:29.054Z,9.01
2022-11-17T12:03:06.919Z,9.18
2022-11-17T12:05:56.288Z,9.07
2022-11-17T12:09:05.836Z,8.92
2022-11-17T12:11:52.732Z,9.20
2022-11-17T12:14:20.025Z,9.47
2022-11-17T12:16:48.375Z,9.02
2022-11-17T12:19:53.512Z,8.99
2022-11-17T12:22:29.522Z,9.34
2022-11-17T12:25:04.586Z,9.31
2022-11-17T12:27:34.436Z,9.32
2022-11-17T12:30:23.677Z,9.33
2022-11-17T12:32:55.042Z,9.35
2022-11-17T12:35:36.066Z,9.55
2022-11-17T12:38:17.759Z,9.31
2022-11-17T12:40:47.642Z,9.25
2022-11-17T12:43:17.580Z,9.36
2022-11-17T12:45:53.557Z,9.26
2022-11-17T12:48:37.130Z,9.57
2022-11-17T12:51:15.901Z,9.42
2022-11-17T12:54:07.832Z,9.52
2022-11-17T12:56:40.730Z,9.70
2022-11-17T12:59:24.897Z,9.87
2022-11-17T13:02:13.594Z,9.75
2022-11-17T13:04:50.075Z,9.74
2022-11-17T13:07:28.315Z,9.60
2022-11-17T13:09:57.541Z,9.70
2022-11-17T13:12:29.773Z,9.30
2022-11-17T13:14:57.938Z,9.04
2022-11-17T13:17:38.869Z,9.34
2022-11-17T13:20:28.859Z,9.60
2022-11-17T13:23:06.796Z,9.64
2022-11-17T13:25:34.585Z,9.47
2022-11-17T13:28:04.747Z,9.65
2022-11-17T13:30:33.530Z,9.40
2022-11-17T13:33:03.845Z,9.56
2022-11-17T13:35:31.607Z,9.34
2022-11-17T13:38:02.651Z,9.34
2022-11-17T13:40:30.631Z,9.48
2022-11-17T13:42:58.967Z,9.30
2022-11-17T13:45:26.194Z,9.28
2022-11-17T13:47:54.522Z,9.34
2022-11-17T13:50:27.445Z,9.32
2022-11-17T13:52:58.256Z,9.27
2022-11-17T13:55:27.510Z,9.49
2022-11-17T13:57:59.536Z,9.58
2022-11-17T14:00:29.246Z,9.57
2022-11-17T14:02:58.491Z,9.76
2022-11-17T14:05:30.245Z,9.22
2022-11-17T14:07:58.536Z,9.55
2022-11-17T14:10:25.518Z,9.61
2022-11-17T14:13:23.100Z,9.68
2022-11-17T14:15:59.387Z,9.64
2022-11-17T14:18:28.318Z,9.74
2022-11-17T14:21:14.147Z,9.82
2022-11-17T14:23:42.449Z,9.93
2022-11-17T14:26:24.664Z,9.90
2022-11-17T14:28:53.197Z,9.86
2022-11-17T14:31:20.325Z,9.69
2022-11-17T14:33:47.316Z,9.82
2022-11-17T14:36:16.724Z,9.87
2022-11-17T14:38:47.892Z,9.80
2022-11-17T14:41:17.193Z,9.78
2022-11-17T14:43:44.858Z,9.74
2022-11-17T14:46:20.282Z,9.71
2022-11-17T14:48:47.310Z,9.56
2022-11-17T14:51:16.314Z,9.66
2022-11-17T14:53:44.146Z,9.77
2022-11-17T14:56:16.933Z,9.71
2022-11-17T14:58:44.497Z,9.56
2022-11-17T15:01:20.077Z,9.47
2022-11-17T15:03:47.350Z,9.52
2022-11-17T15:06:19.367Z,9.45
2022-11-17T15:08:47.670Z,9.24
2022-11-17T15:11:17.686Z,9.18
2022-11-17T15:13:44.819Z,9.27
2022-11-17T15:16:12.295Z,9.38
2022-11-17T15:18:39.274Z,9.35
2022-11-17T15:21:08.866Z,9.29
2022-11-17T15:23:40.427Z,9.28
2022-11-17T15:26:10.536Z,9.37
2022-11-17T15:28:37.239Z,9.48
2022-11-17T15:31:12.340Z,9.29
2022-11-17T15:33:43.433Z,9.34
2022-11-17T15:36:13.073Z,9.16
2022-11-17T15:38:40.419Z,8.93
2022-11-17T15:41:09.098Z,9.08
2022-11-17T15:43:38.147Z,9.26
2022-11-17T15:46:06.254Z,9.32
2022-11-17T15:48:40.244Z,9.19
2022-11-17T15:51:10.488Z,9.13
2022-11-17T15:53:41.640Z,8.98
2022-11-17T15:56:13.161Z,9.04
2022-11-17T15:58:42.311Z,9.17
2022-11-17T16:01:18.201Z,9.09
2022-11-17T16:03:45.956Z,9.04
2022-11-17T16:06:13.184Z,8.98
2022-11-17T16:08:40.450Z,8.92
2022-11-17T16:11:07.493Z,9.02
2022-11-17T16:13:34.682Z,9.04
2022-11-17T16:16:01.912Z,9.22
2022-11-17T16:18:28.879Z,9.38
2022-11-17T16:21:04.713Z,9.23
2022-11-17T16:23:41.755Z,9.30
2022-11-17T16:26:10.633Z,9.26
2022-11-17T16:28:39.079Z,9.33
2022-11-17T16:31:13.917Z,9.25
2022-11-17T16:33:41.019Z,9.30
2022-11-17T16:36:08.527Z,9.42
2022-11-17T16:38:35.479Z,9.32
2022-11-17T16:41:02.383Z,9.48
2022-11-17T16:43:29.347Z,9.49
2022-11-17T16:45:56.264Z,9.36
2022-11-17T16:48:23.462Z,9.38
2022-11-17T16:50:50.412Z,9.24
2022-11-17T16:53:17.395Z,9.30
2022-11-17T16:55:44.242Z,9.36
2022-11-17T16:58:11.817Z,9.43
2022-11-17T17:00:38.776Z,9.59
2022-11-17T17:03:05.705Z,9.57
2022-11-17T17:05:34.638Z,9.51
2022-11-17T17:08:01.512Z,9.51
2022-11-17T17:10:28.358Z,9.58
2022-11-17T17:12:55.250Z,9.53
2022-11-17T17:15:22.085Z,9.40
2022-11-17T17:17:49.116Z,9.42
2022-11-17T17:20:16.306Z,9.41
2022-11-17T17:22:43.311Z,9.40
2022-11-17T17:25:10.402Z,9.52
2022-11-17T17:27:37.233Z,9.52
2022-11-17T17:30:05.300Z,9.50
2022-11-17T17:32:32.254Z,9.59
2022-11-17T17:34:59.253Z,9.63
2022-11-17T17:37:26.131Z,9.59
2022-11-17T17:39:53.001Z,9.49
2022-11-17T17:42:20.638Z,9.51
2022-11-17T17:44:47.604Z,9.48
2022-11-17T17:47:14.561Z,9.55
2022-11-17T17:49:41.336Z,9.52
2022-11-17T17:52:12.538Z,9.57
2022-11-17T17:54:40.688Z,9.60
2022-11-17T17:57:08.009Z,9.56
2022-11-17T17:59:34.984Z,9.60
2022-11-17T18:02:02.725Z,9.49
2022-11-17T18:04:29.703Z,9.38
2022-11-17T18:06:57.659Z,9.32
2022-11-17T18:09:24.578Z,9.26
2022-11-17T18:11:51.667Z,9.33
2022-11-17T18:14:24.370Z,9.38
2022-11-17T18:16:52.141Z,9.42
2022-11-17T18:19:19.379Z,9.47
2022-11-17T18:21:46.658Z,9.61
2022-11-17T18:24:13.603Z,9.74
2022-11-17T18:26:41.475Z,9.68
2022-11-17T18:29:16.735Z,9.66
2022-11-17T18:31:46.895Z,9.58
2022-11-17T18:34:23.638Z,9.45
2022-11-17T18:36:52.412Z,9.46
2022-11-17T18:39:20.025Z,9.36
2022-11-17T18:41:47.683Z,9.39
2022-11-17T18:44:17.230Z,9.44
2022-11-17T18:46:44.134Z,9.44
2022-11-17T18:49:11.167Z,9.47
2022-11-17T18:51:38.277Z,9.51
2022-11-17T18:54:05.227Z,9.51
2022-11-17T18:56:34.998Z,9.53
2022-11-17T18:59:02.543Z,9.37
2022-11-17T19:01:30.357Z,9.26
2022-11-17T19:04:00.993Z,9.33
2022-11-17T19:06:28.569Z,9.37
2022-11-17T19:08:57.529Z,9.42
2022-11-17T19:11:24.537Z,9.45
2022-11-17T19:13:52.431Z,9.42
2022-11-17T19:16:22.256Z,9.38
2022-11-17T19:18:51.723Z,9.58
2022-11-17T19:21:20.766Z,9.51
2022-11-17T19:23:52.550Z,9.55
2022-11-17T19:26:25.653Z,9.49
2022-11-17T19:29:11.200Z,9.42
2022-11-17T19:31:41.482Z,9.47
2022-11-17T19:34:08.406Z,9.53
2022-11-17T19:36:35.565Z,9.60
2022-11-17T19:39:03.775Z,9.61
2022-11-17T19:41:36.508Z,9.64
2022-11-17T19:44:05.475Z,9.81
2022-11-17T19:46:33.348Z,9.68
2022-11-17T19:49:00.346Z,9.63
2022-11-17T19:51:32.523Z,9.64
2022-11-17T19:54:03.092Z,9.63
2022-11-17T19:56:30.601Z,9.70
2022-11-17T19:58:58.054Z,9.59
2022-11-17T20:01:27.740Z,9.68
2022-11-17T20:03:56.370Z,9.65
2022-11-17T20:06:28.880Z,9.70
2022-11-17T20:08:57.608Z,9.76
2022-11-17T20:11:28.869Z,9.65
2022-11-17T20:13:56.251Z,9.59
2022-11-17T20:16:27.232Z,9.56
2022-11-17T20:18:56.716Z,9.40
2022-11-17T20:21:25.035Z,9.59
2022-11-17T20:23:52.493Z,9.52
2022-11-17T20:26:24.789Z,9.44
2022-11-17T20:28:52.526Z,9.56
2022-11-17T20:31:24.424Z,9.58
2022-11-17T20:33:53.851Z,9.59
2022-11-17T20:36:21.781Z,9.65
2022-11-17T20:38:57.390Z,9.58
2022-11-17T20:41:25.290Z,9.53
2022-11-17T20:43:53.994Z,9.58
2022-11-17T20:46:21.903Z,9.68
2022-11-17T20:48:50.061Z,9.73
2022-11-17T20:51:19.941Z,9.75
2022-11-17T20:53:46.874Z,9.68
2022-11-17T20:56:16.294Z,9.65
2022-11-17T20:58:43.532Z,9.69
2022-11-17T21:01:16.186Z,9.67
2022-11-17T21:03:43.464Z,9.64
2022-11-17T21:06:10.835Z,9.66
2022-11-17T21:08:40.560Z,9.66
2022-11-17T21:11:33.079Z,9.52
2022-11-17T21:14:00.148Z,9.46
2022-11-17T21:16:27.337Z,9.56
2022-11-17T21:18:54.370Z,9.54
2022-11-17T21:21:21.228Z,9.45
2022-11-17T21:23:48.339Z,9.46
2022-11-17T21:26:19.592Z,9.48
2022-11-17T21:28:47.621Z,9.51
2022-11-17T21:31:15.757Z,9.41
2022-11-17T21:33:43.635Z,9.34
2022-11-17T21:36:16.878Z,9.36
2022-11-17T21:38:45.171Z,9.24
2022-11-17T21:41:23.901Z,9.27
2022-11-17T21:43:52.527Z,9.27
2022-11-17T21:46:24.225Z,9.15
2022-11-17T21:48:52.551Z,9.15
2022-11-17T21:51:21.951Z,9.11
2022-11-17T21:53:53.460Z,9.08
2022-11-17T21:56:20.543Z,9.07
2022-11-17T21:58:47.570Z,9.03
2022-11-17T22:01:16.077Z,8.91
2022-11-17T22:03:43.801Z,8.97
2022-11-17T22:06:20.244Z,9.10
2022-11-17T22:08:48.147Z,9.07
2022-11-17T22:11:37.051Z,8.93
2022-11-17T22:14:24.536Z,9.06
2022-11-17T22:16:53.540Z,9.15
2022-11-17T22:19:22.056Z,9.08
2022-11-17T22:21:52.101Z,8.99
2022-11-17T22:24:19.462Z,8.93
2022-11-17T22:26:46.662Z,8.97
2022-11-17T22:29:15.269Z,9.00
2022-11-17T22:31:42.505Z,8.94
2022-11-17T22:34:11.137Z,8.94
2022-11-17T22:36:38.415Z,8.98
2022-11-17T22:39:05.918Z,9.11
2022-11-17T22:41:32.761Z,9.04
2022-11-17T22:43:59.752Z,8.95
2022-11-17T22:46:28.380Z,8.88
2022-11-17T22:48:55.698Z,8.93
2022-11-17T22:51:40.953Z,8.94
2022-11-17T22:54:08.717Z,8.89
2022-11-17T22:56:35.857Z,8.80
2022-11-17T22:59:02.940Z,8.82
2022-11-17T23:01:29.752Z,8.83
2022-11-17T23:03:56.736Z,8.78
2022-11-17T23:06:24.396Z,8.79
2022-11-17T23:08:51.443Z,8.91
2022-11-17T23:11:36.420Z,8.82
2022-11-17T23:14:04.603Z,8.86
2022-11-17T23:16:33.163Z,8.94
2022-11-17T23:19:00.331Z,9.01
2022-11-17T23:21:27.383Z,9.02
2022-11-17T23:23:54.280Z,8.95
2022-11-17T23:26:22.450Z,8.99
2022-11-17T23:28:49.693Z,9.00
2022-11-17T23:31:17.890Z,9.04
2022-11-17T23:33:46.852Z,9.10
2022-11-17T23:36:18.806Z,9.03
2022-11-17T23:38:46.873Z,9.09
2022-11-17T23:41:16.295Z,9.08
2022-11-17T23:43:43.518Z,9.06
2022-11-17T23:46:16.222Z,9.11
2022-11-17T23:48:44.243Z,9.04
2022-11-17T23:51:13.492Z,9.16
2022-11-17T23:53:40.710Z,9.13
2022-11-17T23:56:08.509Z,9.25
2022-11-17T23:58:35.982Z,9.12
